CheckWX is a tool to help pilots better visualize weather data.  It is not intended as a substitute for an official pre-flight weather briefing.

14:13:48 UTC

GLRB TAF
Roberts International Airport
Monrovia, Liberia
TAF GLRB 291100Z 2912/3012 22010KT 9999 BKN018 TEMPO 2915/2919 20008KT TS SCT016 FEW024CB BECMG 2921/2923 00000KT 9000 -SHRA SCT012 FEW023CB

Mar-29@
12:00 UTC

Mar-29 @ 12:00 UTC

Mar-29@
21:00 UTC

Mar-29 @ 21:00 UTC

TAF GLRB 291100Z 2912/3012 22010KT 9999 BKN018
Wind
  • 220° at 10 KTS
Cloud Levels
  • Broken at 1,800' AGL

Mar-29@
15:00 UTC

Mar-29 @ 15:00 UTC

Mar-29@
19:00 UTC

Mar-29 @ 19:00 UTC

TEMPO 2915/2919 20008KT TS SCT016 FEW024CB

Temporary

Temporary Changes expected for less than half the time period

Wind
  • 200° at 8 KTS
Conditions
Thunderstorm
Cloud Levels
  • Scattered at 1,600' AGL
  • Few at 2,400' AGL

Mar-29@
21:00 UTC

Mar-29 @ 21:00 UTC

Mar-30@
12:00 UTC

Mar-30 @ 12:00 UTC

BECMG 2921/2923 00000KT 9000 -SHRA SCT012 FEW023CB

Becoming

Becoming Conditions expected by Sun, Mar 29, 2020 @ 23:00 UTC

Conditions
Light Showers, Rain
Cloud Levels
  • Scattered at 1,200' AGL
  • Few at 2,300' AGL